Terminal Aerodrome Forecast
Issued by NWS

Home | Current Version | Previous Version | Text Only | Print | Product List | Glossary On
Versions: 1 2 3 4 5 6 7 8 9 10 11 12 13 14 15 16 17 18 19 20 21 22 23 24 25 26 27 28 29 30 31 32 33 34 35 36 37 38 39 40 41 42 43 44 45 46 47 48 49 50
000
FTUS45 KBOU 281750
TAFBJC
TAF
KBJC 281750Z 2818/2918 05012G20KT P6SM SCT080 BKN120
     FM282100 05014G24KT P6SM -SHRA SCT020 OVC040
      TEMPO 2822/2901 3SM -SHRASN BKN012
     FM290100 03014G22KT 1SM -SN BR BKN004 OVC010
      TEMPO 2901/2905 1/2SM SN FZFG
     FM290600 01014KT 1SM -SN BR OVC005
     FM291400 36007KT 2SM -SN BR OVC008=

USA.gov is the U.S. government's official web portal to all federal, state and local government web resources and services.